Time;durP1;ratioP1;P1;durP2;ratioP2;P2;SDS_P1;SDS_P2;PMS_P1;PMS_P2;Temp;Humidity;BMP_temperature;BMP_pressure;BME280_temperature;BME280_humidity;BME280_pressure;Samples;Min_cycle;Max_cycle;Signal;HPM_P1;HPM_P2
2024/04/01 00:00:21;;;;;;;2.38;1.40;;;11.60;99.90;;;;;;5002318;28;20022;-93
2024/04/01 00:02:51;;;;;;;4.78;1.15;;;11.60;99.90;;;;;;5019030;28;20054;-93
2024/04/01 00:05:19;;;;;;;2.72;1.35;;;11.60;99.90;;;;;;5020104;28;20052;-96
2024/04/01 00:08:08;;;;;;;3.97;1.33;;;11.60;99.90;;;;;;5002743;28;20484;-93
2024/04/01 00:10:37;;;;;;;2.35;1.40;;;11.60;99.90;;;;;;5009787;28;20053;-94
2024/04/01 00:13:06;;;;;;;3.28;1.45;;;11.60;99.90;;;;;;4998999;28;20043;-94
2024/04/01 00:15:32;;;;;;;1.90;1.10;;;11.60;99.90;;;;;;5001021;28;20038;-92
2024/04/01 00:18:00;;;;;;;4.82;1.38;;;11.60;99.90;;;;;;5002121;28;20057;-93
2024/04/01 00:20:26;;;;;;;2.10;1.58;;;11.60;99.90;;;;;;4998444;28;20030;-93
2024/04/01 00:22:53;;;;;;;1.98;1.40;;;11.60;99.90;;;;;;5004313;28;20167;-94
2024/04/01 00:25:20;;;;;;;3.72;1.38;;;11.60;99.90;;;;;;5020223;28;20041;-94
2024/04/01 00:27:46;;;;;;;2.95;1.30;;;11.70;99.90;;;;;;5019025;28;20049;-93
2024/04/01 00:30:12;;;;;;;3.10;1.58;;;11.60;99.90;;;;;;5019859;28;20022;-94
2024/04/01 00:32:38;;;;;;;3.35;1.50;;;11.60;99.90;;;;;;5019352;28;20064;-92
2024/04/01 00:35:04;;;;;;;2.90;1.30;;;11.60;99.90;;;;;;5019271;28;20096;-94
2024/04/01 00:37:29;;;;;;;3.85;1.35;;;11.50;99.90;;;;;;5018263;28;20025;-93
2024/04/01 00:39:55;;;;;;;3.75;1.60;;;11.40;99.90;;;;;;5019530;28;20085;-94
2024/04/01 00:42:27;;;;;;;3.50;1.40;;;11.40;99.90;;;;;;5010750;28;20033;-95
2024/04/01 00:44:57;;;;;;;2.45;1.63;;;11.30;99.90;;;;;;5002383;28;20109;-93
2024/04/01 00:47:30;;;;;;;6.63;2.28;;;11.30;99.90;;;;;;5007394;28;20033;-92
2024/04/01 00:49:57;;;;;;;3.58;1.30;;;11.40;99.90;;;;;;5013561;28;20034;-93
2024/04/01 00:52:29;;;;;;;4.03;1.77;;;11.30;99.90;;;;;;5004036;28;20030;-94
2024/04/01 00:54:57;;;;;;;4.10;2.30;;;11.20;99.90;;;;;;5020970;28;20025;-93
2024/04/01 00:57:23;;;;;;;3.33;1.30;;;11.20;99.90;;;;;;5020289;28;20370;-95
2024/04/01 00:59:51;;;;;;;3.85;2.13;;;11.10;99.90;;;;;;5020037;28;20041;-93
2024/04/01 01:02:21;;;;;;;3.75;1.80;;;11.10;99.90;;;;;;5002153;28;20026;-92
2024/04/01 01:04:49;;;;;;;2.85;1.98;;;11.20;99.90;;;;;;5022833;28;20026;-94
2024/04/01 01:07:15;;;;;;;2.92;1.52;;;11.20;99.90;;;;;;5001425;28;20034;-93
2024/04/01 01:09:41;;;;;;;4.45;1.58;;;11.20;99.90;;;;;;5019379;28;20092;-93
2024/04/01 01:12:07;;;;;;;2.17;1.45;;;11.20;99.90;;;;;;5018781;28;20660;-93
2024/04/01 01:14:35;;;;;;;2.47;1.48;;;11.20;99.90;;;;;;5019211;28;20088;-93
2024/04/01 01:17:01;;;;;;;1.85;0.98;;;11.20;99.90;;;;;;5015614;28;20041;-93
2024/04/01 01:19:27;;;;;;;2.95;1.83;;;11.20;99.90;;;;;;5015825;28;20053;-94
2024/04/01 01:22:06;;;;;;;5.18;1.58;;;11.30;99.90;;;;;;5019502;28;20138;-95
2024/04/01 01:24:34;;;;;;;5.65;1.95;;;11.20;99.90;;;;;;5001149;28;20025;-93
2024/04/01 01:27:00;;;;;;;5.28;1.17;;;11.10;99.90;;;;;;5023901;28;20029;-93
2024/04/01 01:29:29;;;;;;;3.10;1.13;;;11.00;99.90;;;;;;5018996;28;20065;-92
2024/04/01 01:32:01;;;;;;;3.75;1.20;;;11.00;99.90;;;;;;5018413;28;20025;-94
2024/04/01 01:34:33;;;;;;;3.38;1.73;;;11.00;99.90;;;;;;5019505;28;20026;-93
2024/04/01 01:36:58;;;;;;;3.97;1.92;;;10.90;99.90;;;;;;5019526;28;20024;-93
2024/04/01 01:39:24;;;;;;;4.05;1.52;;;10.80;99.90;;;;;;5019212;28;20085;-93
2024/04/01 01:41:50;;;;;;;2.65;1.42;;;10.90;99.90;;;;;;5022558;28;20037;-95
2024/04/01 01:44:16;;;;;;;2.17;1.38;;;10.70;99.90;;;;;;5003576;28;20393;-93
2024/04/01 01:46:41;;;;;;;3.47;2.10;;;10.80;99.90;;;;;;5019396;28;20037;-94
2024/04/01 01:49:07;;;;;;;4.00;1.73;;;10.70;99.90;;;;;;5018172;28;20089;-92
2024/04/01 01:51:33;;;;;;;2.70;1.05;;;10.70;99.90;;;;;;5018668;28;20033;-93
2024/04/01 01:53:58;;;;;;;4.30;2.63;;;10.60;99.90;;;;;;4999957;28;20046;-95
2024/04/01 01:56:24;;;;;;;3.17;2.20;;;10.70;99.90;;;;;;5016544;28;20126;-94
2024/04/01 01:58:50;;;;;;;3.58;2.13;;;10.70;99.90;;;;;;5018666;28;20050;-95
2024/04/01 02:01:16;;;;;;;2.17;1.67;;;10.70;99.90;;;;;;5003339;28;20075;-93
2024/04/01 02:03:44;;;;;;;4.13;2.15;;;10.70;99.90;;;;;;5026171;28;20484;-94
2024/04/01 02:06:10;;;;;;;3.95;2.22;;;10.70;99.90;;;;;;5026951;28;20033;-91
2024/04/01 02:08:39;;;;;;;3.30;1.58;;;10.70;99.90;;;;;;5007272;28;20080;-93
2024/04/01 02:11:05;;;;;;;2.85;1.40;;;10.80;99.90;;;;;;5000660;28;20429;-92
2024/04/01 02:13:30;;;;;;;5.63;2.05;;;10.90;99.90;;;;;;5000449;28;20053;-94
2024/04/01 02:16:10;;;;;;;1.85;1.38;;;10.90;99.90;;;;;;5017837;28;20037;-93
2024/04/01 02:18:36;;;;;;;3.63;1.50;;;10.90;99.90;;;;;;5018182;28;20305;-96
2024/04/01 02:21:03;;;;;;;3.78;1.55;;;10.90;99.90;;;;;;5018225;28;20033;-93
2024/04/01 02:23:31;;;;;;;2.28;1.50;;;11.00;99.90;;;;;;5026630;28;20022;-94
2024/04/01 02:26:04;;;;;;;2.95;1.88;;;11.00;99.90;;;;;;5004021;28;20104;-92
2024/04/01 02:28:30;;;;;;;2.88;1.90;;;10.80;99.90;;;;;;5018772;28;20038;-93
2024/04/01 02:30:58;;;;;;;4.85;1.67;;;10.90;99.90;;;;;;5020588;28;20080;-93
2024/04/01 02:33:26;;;;;;;2.72;1.42;;;10.80;99.90;;;;;;5003095;28;20042;-93
2024/04/01 02:35:52;;;;;;;2.17;1.88;;;10.90;99.90;;;;;;5022267;28;20030;-93
2024/04/01 02:38:18;;;;;;;3.38;1.77;;;10.80;99.90;;;;;;5021065;28;20030;-93
2024/04/01 02:40:44;;;;;;;2.13;1.83;;;10.70;99.90;;;;;;5002902;28;20026;-94
2024/04/01 02:43:10;;;;;;;2.35;1.80;;;10.80;99.90;;;;;;5021064;28;20081;-93
2024/04/01 02:45:36;;;;;;;2.63;1.58;;;10.80;99.90;;;;;;5020824;28;20018;-93
2024/04/01 02:48:01;;;;;;;1.98;1.40;;;10.80;99.90;;;;;;5003393;28;20113;-93
2024/04/01 02:50:27;;;;;;;3.80;1.50;;;10.70;99.90;;;;;;5002394;28;20065;-92
2024/04/01 02:52:53;;;;;;;3.97;2.20;;;10.70;99.90;;;;;;5015127;28;20073;-93
2024/04/01 02:55:19;;;;;;;2.80;1.70;;;10.70;99.90;;;;;;5003175;28;20420;-93
2024/04/01 02:57:45;;;;;;;4.75;1.30;;;10.70;99.90;;;;;;5003579;28;20080;-92
2024/04/01 03:00:16;;;;;;;3.35;1.67;;;10.60;99.90;;;;;;5020059;28;20082;-92
2024/04/01 03:02:46;;;;;;;6.85;1.80;;;10.50;99.90;;;;;;5019003;28;20258;-91
2024/04/01 03:05:13;;;;;;;3.63;2.05;;;10.50;99.90;;;;;;5004179;28;20036;-94
2024/04/01 03:07:45;;;;;;;1.77;1.35;;;10.40;99.90;;;;;;5031804;28;20018;-92
2024/04/01 03:10:11;;;;;;;4.05;1.55;;;10.50;99.90;;;;;;5000088;28;20029;-91
2024/04/01 03:12:41;;;;;;;3.80;1.55;;;10.50;99.90;;;;;;5020841;28;20026;-92
2024/04/01 03:15:16;;;;;;;3.72;1.98;;;10.40;99.90;;;;;;5003320;28;20070;-94
2024/04/01 03:17:45;;;;;;;3.38;2.20;;;10.30;99.90;;;;;;5010177;28;20045;-92
2024/04/01 03:20:12;;;;;;;5.43;2.38;;;10.30;99.90;;;;;;5028332;28;20025;-93
2024/04/01 03:22:38;;;;;;;3.38;1.77;;;10.40;99.90;;;;;;5002700;28;20072;-92
2024/04/01 03:25:04;;;;;;;5.57;2.05;;;10.30;99.90;;;;;;5020486;28;20029;-91
2024/04/01 03:27:33;;;;;;;3.10;1.98;;;10.30;99.90;;;;;;5021558;28;20389;-93
2024/04/01 03:29:59;;;;;;;4.65;2.10;;;10.40;99.90;;;;;;5020243;28;20022;-93
2024/04/01 03:32:25;;;;;;;4.13;3.45;;;10.40;99.90;;;;;;5020080;28;20492;-92
2024/04/01 03:34:56;;;;;;;5.13;2.35;;;10.30;99.90;;;;;;5028362;28;20026;-95
2024/04/01 03:37:22;;;;;;;5.22;2.83;;;10.30;99.90;;;;;;5020326;28;20057;-94
2024/04/01 03:39:49;;;;;;;4.35;2.60;;;10.30;99.90;;;;;;5003228;28;20038;-91
2024/04/01 03:42:15;;;;;;;4.40;2.63;;;10.30;99.90;;;;;;5019225;28;20029;-93
2024/04/01 03:44:49;;;;;;;4.22;2.33;;;10.30;99.90;;;;;;5001341;28;20063;-93
2024/04/01 03:47:15;;;;;;;3.47;2.22;;;10.40;99.90;;;;;;5018933;28;20037;-93
2024/04/01 03:49:40;;;;;;;4.22;2.50;;;10.40;99.90;;;;;;5020184;28;20021;-92
2024/04/01 03:52:06;;;;;;;4.47;2.25;;;10.40;99.90;;;;;;5019296;28;20077;-93
2024/04/01 03:54:34;;;;;;;5.03;2.70;;;10.30;99.90;;;;;;5018995;28;20029;-93
2024/04/01 03:57:03;;;;;;;3.45;1.88;;;10.30;99.90;;;;;;5019478;28;20022;-93
2024/04/01 03:59:29;;;;;;;4.38;2.10;;;10.30;99.90;;;;;;5019400;28;20022;-93
2024/04/01 04:01:55;;;;;;;2.90;2.42;;;10.30;99.90;;;;;;5019541;28;20029;-92
2024/04/01 04:04:21;;;;;;;4.70;2.75;;;10.40;99.90;;;;;;5011726;28;20026;-93
2024/04/01 04:06:47;;;;;;;3.38;2.33;;;10.40;99.90;;;;;;5016929;28;20030;-93
2024/04/01 04:09:16;;;;;;;5.72;2.45;;;10.30;99.90;;;;;;5010466;28;20053;-93
2024/04/01 04:11:51;;;;;;;2.88;2.45;;;10.20;99.90;;;;;;5019030;28;20086;-92
2024/04/01 04:14:18;;;;;;;3.55;2.55;;;10.30;99.90;;;;;;5027732;28;20057;-93
2024/04/01 04:16:47;;;;;;;8.18;3.03;;;10.30;99.90;;;;;;5002722;28;20108;-92
2024/04/01 04:19:14;;;;;;;3.45;2.75;;;10.30;99.90;;;;;;5020487;28;20050;-93
2024/04/01 04:21:40;;;;;;;4.68;2.00;;;10.30;99.90;;;;;;5003272;28;20021;-92
2024/04/01 04:24:10;;;;;;;2.53;2.10;;;10.30;99.90;;;;;;5033359;28;20388;-93
2024/04/01 04:26:35;;;;;;;5.30;1.98;;;10.20;99.90;;;;;;5019891;28;20108;-93
2024/04/01 04:29:04;;;;;;;1.52;1.33;;;10.30;99.90;;;;;;5026570;23;20020;-91
2024/04/01 04:31:31;;;;;;;1.75;1.52;;;10.20;99.90;;;;;;5030006;28;20042;-94
2024/04/01 04:33:56;;;;;;;2.17;1.58;;;10.20;99.90;;;;;;5042146;28;20025;-93
2024/04/01 04:36:28;;;;;;;4.50;1.98;;;10.20;99.90;;;;;;5024193;28;20481;-93
2024/04/01 04:38:54;;;;;;;2.75;2.05;;;10.20;99.90;;;;;;5007085;28;20026;-93
2024/04/01 04:41:22;;;;;;;2.83;2.13;;;10.20;99.90;;;;;;5010848;28;20575;-93
2024/04/01 04:43:47;;;;;;;;;;;10.20;99.90;;;;;;5005516;28;20046;-94
2024/04/01 04:46:15;;;;;;;3.97;1.30;;;10.20;99.90;;;;;;5020924;28;19940;-94
2024/04/01 04:48:42;;;;;;;3.20;2.10;;;10.20;99.90;;;;;;5015261;28;20045;-93
2024/04/01 04:51:11;;;;;;;2.60;2.28;;;10.20;99.90;;;;;;5021092;28;20141;-93
2024/04/01 04:53:40;;;;;;;4.32;2.33;;;10.20;99.90;;;;;;5022208;28;20032;-93
2024/04/01 04:56:11;;;;;;;3.60;1.85;;;10.10;99.90;;;;;;5023086;28;20119;-94
2024/04/01 04:58:41;;;;;;;3.28;1.52;;;10.00;99.90;;;;;;5007362;28;20026;-93
2024/04/01 05:01:10;;;;;;;3.95;1.73;;;10.10;99.90;;;;;;5029342;28;20033;-94
2024/04/01 05:03:44;;;;;;;1.90;1.60;;;10.10;99.90;;;;;;5007249;28;20058;-94
2024/04/01 05:06:23;;;;;;;5.43;1.90;;;10.10;99.90;;;;;;5010649;28;20026;-94
2024/04/01 05:08:49;;;;;;;3.05;1.50;;;10.10;99.90;;;;;;5011604;28;20030;-94
2024/04/01 05:11:15;;;;;;;3.92;2.45;;;10.00;99.90;;;;;;5013123;28;20045;-94
2024/04/01 05:13:43;;;;;;;3.80;2.72;;;10.00;99.90;;;;;;5005767;28;20030;-94
2024/04/01 05:16:14;;;;;;;3.05;1.50;;;10.00;99.90;;;;;;5034660;28;20045;-95
2024/04/01 05:18:46;;;;;;;3.28;1.67;;;10.00;99.90;;;;;;5035898;28;20034;-94
2024/04/01 05:21:12;;;;;;;3.13;1.67;;;9.90;99.90;;;;;;5035282;28;20081;-93
2024/04/01 05:23:53;;;;;;;2.55;1.88;;;9.90;99.90;;;;;;5036089;28;20049;-93
2024/04/01 05:26:22;;;;;;;2.65;1.92;;;9.90;99.90;;;;;;5029981;28;20041;-93
2024/04/01 05:28:55;;;;;;;5.00;2.20;;;9.90;99.90;;;;;;5035771;28;20042;-94
2024/04/01 05:31:21;;;;;;;4.13;2.00;;;9.90;99.90;;;;;;5033388;23;20133;-93
2024/04/01 05:33:46;;;;;;;5.03;1.35;;;9.80;99.90;;;;;;5019930;28;20246;-93
2024/04/01 05:36:12;;;;;;;4.10;2.20;;;9.90;99.90;;;;;;5037410;28;20083;-94
2024/04/01 05:38:40;;;;;;;2.80;1.98;;;9.90;99.90;;;;;;5018908;28;20022;-93
2024/04/01 05:41:05;;;;;;;3.72;1.67;;;9.90;99.90;;;;;;5028912;28;20105;-92
2024/04/01 05:43:31;;;;;;;3.67;1.77;;;9.90;99.90;;;;;;5011123;28;20057;-93
2024/04/01 05:45:57;;;;;;;6.28;1.63;;;10.00;99.90;;;;;;5020813;28;20037;-93
2024/04/01 05:48:22;;;;;;;2.40;2.13;;;10.00;99.90;;;;;;5021140;28;20032;-94
2024/04/01 05:50:50;;;;;;;2.63;1.60;;;10.00;99.90;;;;;;5004119;28;20034;-93
2024/04/01 05:53:16;;;;;;;2.38;1.60;;;10.00;99.90;;;;;;5004541;28;20034;-93
2024/04/01 05:55:41;;;;;;;4.25;1.60;;;10.00;99.90;;;;;;5026782;28;20075;-94
2024/04/01 05:58:11;;;;;;;2.85;1.02;;;10.00;99.90;;;;;;5024955;28;20927;-94
2024/04/01 06:00:37;;;;;;;1.77;1.30;;;10.00;99.90;;;;;;5025347;28;20025;-93
2024/04/01 06:03:05;;;;;;;3.67;1.70;;;10.00;99.90;;;;;;5027103;28;20026;-94
2024/04/01 06:05:33;;;;;;;10.95;2.72;;;10.00;99.90;;;;;;5010361;28;20053;-94
2024/04/01 06:07:59;;;;;;;1.92;1.33;;;10.00;99.90;;;;;;5022993;28;20034;-93
2024/04/01 06:10:26;;;;;;;2.40;1.20;;;10.00;99.90;;;;;;5029044;28;20025;-94
2024/04/01 06:12:53;;;;;;;2.25;2.05;;;10.00;99.90;;;;;;5012874;28;20087;-92
2024/04/01 06:15:19;;;;;;;2.85;1.42;;;9.90;99.90;;;;;;5029658;28;20022;-94
2024/04/01 06:17:45;;;;;;;2.08;1.27;;;9.90;99.90;;;;;;5033517;28;20030;-93
2024/04/01 06:20:10;;;;;;;2.65;2.00;;;9.90;99.90;;;;;;5032657;28;20022;-95
2024/04/01 06:22:37;;;;;;;2.13;1.77;;;9.90;99.90;;;;;;5024494;28;20054;-93
2024/04/01 06:25:03;;;;;;;2.60;1.00;;;9.80;99.90;;;;;;5022947;28;20045;-93
2024/04/01 06:27:30;;;;;;;2.90;1.77;;;9.90;99.90;;;;;;5021843;28;20030;-92
2024/04/01 06:29:55;;;;;;;1.95;1.50;;;9.90;99.90;;;;;;5023080;28;20029;-95
2024/04/01 06:32:21;;;;;;;5.75;2.35;;;9.80;99.90;;;;;;5032101;28;20058;-93
2024/04/01 06:34:47;;;;;;;3.67;1.60;;;9.80;99.90;;;;;;5033392;28;20122;-93
2024/04/01 06:37:13;;;;;;;2.90;1.92;;;9.80;99.90;;;;;;5026152;28;20018;-91
2024/04/01 06:39:39;;;;;;;2.13;1.33;;;9.80;99.90;;;;;;5025062;28;20030;-92
2024/04/01 06:42:05;;;;;;;1.63;1.40;;;9.70;99.90;;;;;;5024971;28;20061;-93
2024/04/01 06:44:30;;;;;;;1.27;1.13;;;9.80;99.90;;;;;;5024992;28;20028;-92
2024/04/01 06:46:56;;;;;;;3.20;1.25;;;9.70;99.90;;;;;;5013140;28;20431;-93
2024/04/01 06:49:22;;;;;;;1.60;1.27;;;9.70;99.90;;;;;;5016942;28;20053;-93
2024/04/01 06:51:47;;;;;;;2.42;1.20;;;9.70;99.90;;;;;;5025741;28;20030;-93
2024/04/01 06:54:13;;;;;;;1.55;1.45;;;9.70;99.90;;;;;;5032836;28;20027;-93
2024/04/01 06:56:39;;;;;;;1.90;1.77;;;9.70;99.90;;;;;;5037562;28;20036;-95
2024/04/01 06:59:04;;;;;;;2.28;0.90;;;9.60;99.90;;;;;;5039778;28;20523;-92
2024/04/01 07:01:30;;;;;;;1.13;1.10;;;9.60;99.90;;;;;;5029641;28;20030;-93
2024/04/01 07:03:56;;;;;;;1.85;0.98;;;9.70;99.90;;;;;;5035016;28;20022;-94
2024/04/01 07:06:21;;;;;;;2.03;1.25;;;9.60;99.90;;;;;;5024056;28;20041;-95
2024/04/01 07:08:47;;;;;;;1.45;1.08;;;9.60;99.90;;;;;;5025363;28;20098;-94
2024/04/01 07:11:13;;;;;;;2.45;1.00;;;9.60;99.90;;;;;;5024786;28;20041;-94
2024/04/01 07:13:39;;;;;;;1.40;0.75;;;9.60;99.90;;;;;;5024598;28;20060;-93
2024/04/01 07:16:05;;;;;;;2.83;0.57;;;9.70;99.90;;;;;;5025133;28;20040;-93
2024/04/01 07:18:33;;;;;;;1.55;1.45;;;9.70;99.90;;;;;;5023489;28;20050;-93
2024/04/01 07:20:58;;;;;;;1.30;0.93;;;9.70;99.90;;;;;;5023695;28;20484;-92
2024/04/01 07:23:24;;;;;;;1.42;0.82;;;9.60;99.90;;;;;;5007128;28;20029;-93
2024/04/01 07:25:51;;;;;;;1.15;0.80;;;9.50;99.90;;;;;;5030859;28;20032;-92
2024/04/01 07:28:16;;;;;;;1.17;1.08;;;9.50;99.90;;;;;;5006230;28;20030;-93
2024/04/01 07:30:42;;;;;;;1.15;1.05;;;9.60;99.90;;;;;;5008648;28;20468;-94
2024/04/01 07:33:08;;;;;;;1.45;1.25;;;9.60;99.90;;;;;;5024778;28;20076;-94
2024/04/01 07:35:34;;;;;;;1.35;1.20;;;9.60;99.90;;;;;;5025800;28;20045;-93
2024/04/01 07:38:00;;;;;;;2.08;0.75;;;9.60;99.90;;;;;;5027673;28;20068;-93
2024/04/01 07:40:26;;;;;;;1.40;1.08;;;9.60;99.90;;;;;;5025002;28;20042;-94
2024/04/01 07:42:52;;;;;;;1.00;0.73;;;9.60;99.90;;;;;;5024461;28;20026;-92
2024/04/01 07:45:18;;;;;;;1.08;1.00;;;9.60;99.90;;;;;;5025931;28;20041;-93
2024/04/01 07:47:43;;;;;;;0.70;0.70;;;9.60;99.90;;;;;;5025222;28;20031;-91
2024/04/01 07:50:09;;;;;;;0.95;0.95;;;9.50;99.90;;;;;;5025321;28;20057;-93
2024/04/01 07:52:36;;;;;;;0.70;0.30;;;9.60;99.90;;;;;;4991950;28;20443;-93
2024/04/01 07:55:02;;;;;;;0.90;0.60;;;9.50;99.90;;;;;;5012651;28;20072;-93
2024/04/01 07:57:30;;;;;;;0.60;0.55;;;9.70;99.90;;;;;;5024372;28;20030;-93
2024/04/01 07:59:57;;;;;;;1.75;1.40;;;9.70;99.90;;;;;;5024138;28;20451;-93
2024/04/01 08:02:23;;;;;;;1.85;1.30;;;9.70;99.90;;;;;;5007169;28;20033;-93
2024/04/01 08:04:49;;;;;;;2.20;0.85;;;9.70;99.90;;;;;;5037539;28;20026;-93
2024/04/01 08:07:15;;;;;;;2.47;1.10;;;9.80;99.90;;;;;;5024451;28;20030;-93
2024/04/01 08:09:41;;;;;;;5.68;1.35;;;9.80;99.90;;;;;;5028919;28;20100;-93
2024/04/01 08:12:08;;;;;;;1.33;0.93;;;10.00;99.90;;;;;;5034399;28;20032;-92
2024/04/01 08:14:34;;;;;;;2.20;1.30;;;9.90;99.90;;;;;;5028738;28;20104;-93
2024/04/01 08:17:00;;;;;;;1.80;1.08;;;10.00;99.90;;;;;;5023251;28;20036;-91
2024/04/01 08:19:28;;;;;;;2.67;1.35;;;10.00;99.90;;;;;;5022318;28;20017;-95
2024/04/01 08:21:53;;;;;;;;;;;9.90;99.90;;;;;;5024087;28;20037;-93
2024/04/01 08:24:19;;;;;;;2.10;1.55;;;9.90;99.90;;;;;;5006206;28;19909;-92
2024/04/01 08:26:45;;;;;;;3.17;1.17;;;9.90;99.90;;;;;;5037660;28;20048;-95
2024/04/01 08:29:11;;;;;;;2.78;1.40;;;9.80;99.90;;;;;;5036604;28;20030;-94
2024/04/01 08:31:36;;;;;;;2.35;1.60;;;9.80;99.90;;;;;;5026585;28;20114;-93
2024/04/01 08:34:02;;;;;;;3.55;2.35;;;9.80;99.90;;;;;;5027897;28;20041;-93
2024/04/01 08:36:28;;;;;;;2.80;1.38;;;9.80;99.90;;;;;;5026425;28;20033;-93
2024/04/01 08:38:53;;;;;;;2.45;1.35;;;9.80;99.90;;;;;;5026711;28;20030;-94
2024/04/01 08:41:38;;;;;;;3.22;1.15;;;9.70;99.90;;;;;;5026402;28;20431;-94
2024/04/01 08:44:09;;;;;;;1.48;1.38;;;9.80;99.90;;;;;;5035845;28;20052;-94
2024/04/01 08:46:39;;;;;;;1.55;1.05;;;9.70;99.90;;;;;;5019112;28;20049;-93
2024/04/01 08:49:11;;;;;;;1.15;1.05;;;9.70;99.90;;;;;;5034152;28;20030;-92
2024/04/01 08:51:38;;;;;;;2.15;1.17;;;9.70;99.90;;;;;;5030989;28;20017;-95
2024/04/01 08:54:07;;;;;;;3.63;1.27;;;9.70;99.90;;;;;;5026635;28;20109;-92
2024/04/01 08:56:33;;;;;;;2.47;1.05;;;9.70;99.90;;;;;;5023955;28;20076;-96
2024/04/01 08:58:59;;;;;;;1.60;1.33;;;9.60;99.90;;;;;;5006040;28;20025;-93
2024/04/01 09:01:26;;;;;;;1.70;1.58;;;9.70;99.90;;;;;;5021978;28;20069;-94
2024/04/01 09:03:52;;;;;;;2.00;1.35;;;9.70;99.90;;;;;;5022237;28;20049;-93
2024/04/01 09:06:19;;;;;;;1.48;0.90;;;9.60;99.90;;;;;;5022674;28;20025;-93
2024/04/01 09:08:46;;;;;;;1.77;1.38;;;9.60;99.90;;;;;;5023874;28;20033;-93
2024/04/01 09:11:15;;;;;;;1.75;1.30;;;9.60;99.90;;;;;;5004549;28;20057;-93
2024/04/01 09:13:40;;;;;;;2.85;1.08;;;9.60;99.90;;;;;;5028135;28;20045;-93
2024/04/01 09:16:07;;;;;;;1.77;1.15;;;9.60;99.90;;;;;;5023119;28;21073;-96
2024/04/01 09:18:36;;;;;;;3.47;1.50;;;9.50;99.90;;;;;;5037372;28;20037;-96
2024/04/01 09:21:06;;;;;;;2.67;1.17;;;9.50;99.90;;;;;;5045032;28;20009;-96
2024/04/01 09:23:41;;;;;;;1.52;0.98;;;9.50;99.90;;;;;;5051852;28;20037;-96
2024/04/01 09:26:07;;;;;;;1.42;1.23;;;9.50;99.90;;;;;;5035752;28;20041;-92
2024/04/01 09:28:33;;;;;;;2.05;1.83;;;9.40;99.90;;;;;;5024663;28;20026;-95
2024/04/01 09:30:59;;;;;;;2.47;1.70;;;9.40;99.90;;;;;;5011371;28;20042;-95
2024/04/01 09:33:24;;;;;;;3.03;1.20;;;9.30;99.90;;;;;;5030844;28;20053;-94
2024/04/01 09:35:50;;;;;;;4.10;2.00;;;9.40;99.90;;;;;;5030023;28;20045;-95
2024/04/01 09:38:17;;;;;;;2.60;1.27;;;9.40;99.90;;;;;;5031312;28;20108;-96
2024/04/01 09:40:49;;;;;;;1.70;0.90;;;9.50;99.90;;;;;;5043097;28;20025;-93
2024/04/01 09:43:20;;;;;;;1.20;0.75;;;9.50;99.90;;;;;;5042439;28;20112;-93
2024/04/01 09:45:47;;;;;;;1.45;1.35;;;9.40;99.90;;;;;;5022101;28;20041;-94
2024/04/01 09:48:14;;;;;;;0.85;0.85;;;9.40;99.90;;;;;;5038933;28;20014;-93
2024/04/01 09:50:42;;;;;;;1.08;0.65;;;9.40;99.90;;;;;;5025391;28;20030;-95
2024/04/01 09:53:08;;;;;;;0.77;0.77;;;9.50;99.90;;;;;;5055280;28;20021;-92
2024/04/01 09:55:50;;;;;;;1.50;1.23;;;9.50;99.90;;;;;;5039310;28;20052;-94
2024/04/01 09:58:35;;;;;;;1.13;1.02;;;9.40;99.90;;;;;;5055494;28;20052;-94
2024/04/01 10:01:25;;;;;;;1.58;1.00;;;9.40;99.90;;;;;;5036207;28;20026;-94
2024/04/01 10:03:57;;;;;;;1.67;1.20;;;9.40;99.90;;;;;;5032027;28;20038;-92
2024/04/01 10:06:31;;;;;;;0.80;0.75;;;9.30;99.90;;;;;;5034930;28;20013;-95
2024/04/01 10:09:15;;;;;;;;;;;9.30;99.90;;;;;;5034988;28;20049;-96
2024/04/01 10:11:58;;;;;;;1.42;1.08;;;9.30;99.90;;;;;;5038532;28;19910;-95
2024/04/01 10:14:45;;;;;;;0.90;0.63;;;9.30;99.90;;;;;;5036973;28;20029;-95
2024/04/01 10:17:21;;;;;;;1.45;1.35;;;9.30;99.90;;;;;;5033915;28;20033;-94
2024/04/01 10:19:59;;;;;;;1.13;0.93;;;9.40;99.90;;;;;;5034653;28;20018;-95
2024/04/01 10:23:02;;;;;;;1.42;1.33;;;9.50;99.90;;;;;;5034503;28;20094;-96
2024/04/01 10:26:05;;;;;;;1.35;1.25;;;9.40;99.90;;;;;;5024295;28;20090;-95
2024/04/01 10:29:07;;;;;;;0.65;0.65;;;9.50;99.90;;;;;;5033577;28;20022;-94
2024/04/01 10:31:57;;;;;;;1.55;0.68;;;9.70;99.90;;;;;;5031818;28;20010;-93
2024/04/01 10:34:49;;;;;;;1.45;1.35;;;9.70;99.90;;;;;;5038864;28;20056;-93
2024/04/01 10:37:48;;;;;;;0.82;0.82;;;9.80;99.90;;;;;;5031406;28;20045;-93
2024/04/01 10:40:32;;;;;;;1.05;0.98;;;9.80;99.90;;;;;;5029967;28;20093;-96
2024/04/01 10:43:25;;;;;;;0.95;0.90;;;9.80;99.90;;;;;;5031437;28;20042;-94
2024/04/01 10:45:56;;;;;;;1.20;1.10;;;9.80;99.90;;;;;;5029277;28;20025;-94
2024/04/01 10:48:25;;;;;;;1.63;1.52;;;9.70;99.90;;;;;;5039062;28;20026;-95
2024/04/01 10:51:25;;;;;;;1.52;1.42;;;9.60;99.90;;;;;;5030283;28;20026;-92
2024/04/01 10:54:07;;;;;;;2.50;1.13;;;9.60;99.90;;;;;;5023883;28;20026;-94
2024/04/01 10:57:17;;;;;;;1.85;1.25;;;9.60;99.90;;;;;;5038921;28;20053;-94
2024/04/01 11:00:05;;;;;;;2.47;1.52;;;9.60;99.90;;;;;;4988841;28;20030;-94
2024/04/01 11:03:06;;;;;;;3.17;1.30;;;9.60;99.90;;;;;;5028222;28;20064;-94
2024/04/01 11:05:38;;;;;;;1.17;0.95;;;9.60;99.90;;;;;;5023315;28;20530;-93
2024/04/01 11:08:14;;;;;;;1.55;1.45;;;9.50;99.90;;;;;;5032125;28;20116;-94
2024/04/01 11:10:47;;;;;;;1.55;1.23;;;9.50;99.90;;;;;;5014379;28;20025;-94
2024/04/01 11:13:17;;;;;;;1.88;1.05;;;9.50;99.90;;;;;;5030744;28;20018;-92
2024/04/01 11:15:43;;;;;;;4.30;1.80;;;9.50;99.90;;;;;;5037768;28;20026;-95
2024/04/01 11:18:15;;;;;;;1.42;0.88;;;9.50;99.90;;;;;;5031465;28;20030;-95
2024/04/01 11:20:49;;;;;;;1.65;1.55;;;9.40;99.90;;;;;;5029896;28;20053;-93
2024/04/01 11:23:24;;;;;;;0.90;0.90;;;9.40;99.90;;;;;;5012803;28;20026;-94
2024/04/01 11:26:32;;;;;;;0.85;0.85;;;9.40;99.90;;;;;;5027610;28;20129;-94
2024/04/01 11:29:07;;;;;;;1.63;1.00;;;9.40;99.90;;;;;;4989861;28;20048;-94
2024/04/01 11:31:37;;;;;;;1.35;1.25;;;9.30;99.90;;;;;;5010261;28;20377;-92
2024/04/01 11:34:03;;;;;;;2.25;1.05;;;9.30;99.90;;;;;;5028037;28;20082;-94
2024/04/01 11:36:57;;;;;;;1.20;0.82;;;9.30;99.90;;;;;;5021899;28;20040;-94
2024/04/01 11:39:24;;;;;;;1.70;1.08;;;9.30;99.90;;;;;;5036466;28;20275;-94
2024/04/01 11:41:55;;;;;;;1.02;0.93;;;9.30;99.90;;;;;;5030041;28;20048;-96
2024/04/01 11:44:25;;;;;;;1.05;0.95;;;9.30;99.90;;;;;;5027017;28;20153;-95
2024/04/01 11:46:52;;;;;;;1.55;1.33;;;9.30;99.90;;;;;;5038458;28;20030;-95
2024/04/01 11:49:23;;;;;;;1.35;1.05;;;9.30;99.90;;;;;;5040083;28;20018;-94
2024/04/01 11:51:54;;;;;;;1.27;1.17;;;9.20;99.90;;;;;;5044712;28;20093;-93
2024/04/01 11:54:26;;;;;;;2.33;0.85;;;9.30;99.90;;;;;;5032275;28;20060;-94
2024/04/01 11:56:52;;;;;;;0.88;0.70;;;9.30;99.90;;;;;;5027669;28;20034;-94
2024/04/01 11:59:33;;;;;;;1.73;0.85;;;9.20;99.90;;;;;;5029425;28;20014;-95
2024/04/01 12:02:10;;;;;;;1.10;0.88;;;9.20;99.90;;;;;;5027739;28;20032;-93
2024/04/01 12:04:36;;;;;;;1.55;1.15;;;9.20;99.90;;;;;;5023248;28;20060;-95
2024/04/01 12:07:07;;;;;;;0.68;0.68;;;9.20;99.90;;;;;;5024764;28;20025;-96
2024/04/01 12:09:34;;;;;;;1.20;1.02;;;9.20;99.90;;;;;;5034375;28;20014;-94
2024/04/01 12:11:59;;;;;;;1.88;1.58;;;9.30;99.90;;;;;;5031823;28;20077;-95
2024/04/01 12:14:29;;;;;;;0.93;0.93;;;9.20;99.90;;;;;;5033327;28;20378;-96
2024/04/01 12:17:00;;;;;;;0.73;0.70;;;9.10;99.90;;;;;;5032516;28;20022;-94
2024/04/01 12:19:26;;;;;;;0.88;0.88;;;9.10;99.90;;;;;;5016557;28;20072;-95
2024/04/01 12:21:51;;;;;;;1.30;1.20;;;9.00;99.90;;;;;;5039286;28;20021;-95
2024/04/01 12:24:19;;;;;;;0.80;0.80;;;9.10;99.90;;;;;;5033556;28;20029;-95
2024/04/01 12:26:50;;;;;;;0.73;0.73;;;9.10;99.90;;;;;;5026224;28;20105;-94
2024/04/01 12:29:17;;;;;;;0.65;0.65;;;9.10;99.90;;;;;;5031277;28;20026;-94
2024/04/01 12:31:47;;;;;;;0.73;0.50;;;9.30;99.90;;;;;;5029019;28;20038;-94
2024/04/01 12:34:13;;;;;;;0.82;0.82;;;9.30;99.90;;;;;;5034152;28;20048;-92
2024/04/01 12:36:40;;;;;;;0.88;0.88;;;9.40;99.90;;;;;;5032024;28;20029;-93
2024/04/01 12:39:09;;;;;;;0.80;0.80;;;9.30;99.90;;;;;;5029613;28;20103;-93
2024/04/01 12:41:37;;;;;;;1.48;1.38;;;9.20;99.90;;;;;;5028883;28;20049;-94
2024/04/01 12:44:06;;;;;;;0.88;0.88;;;9.30;99.90;;;;;;5010391;28;20036;-94
2024/04/01 12:46:36;;;;;;;1.05;1.05;;;9.20;99.90;;;;;;5028201;28;20080;-93
2024/04/01 12:49:03;;;;;;;2.50;1.20;;;9.30;99.90;;;;;;5027195;28;20550;-94
2024/04/01 12:51:29;;;;;;;0.77;0.77;;;9.40;99.90;;;;;;5026449;28;20026;-95
2024/04/01 12:54:22;;;;;;;0.82;0.82;;;9.40;99.90;;;;;;5025924;28;20026;-94
2024/04/01 12:57:03;;;;;;;1.00;0.95;;;9.50;99.90;;;;;;5019993;28;20048;-94
2024/04/01 13:00:06;;;;;;;1.15;1.15;;;9.60;99.90;;;;;;5032881;28;20013;-96
2024/04/01 13:03:02;;;;;;;1.23;1.23;;;9.60;99.90;;;;;;5031800;28;20056;-95
2024/04/01 13:05:45;;;;;;;0.98;0.95;;;9.40;99.90;;;;;;5029591;28;20032;-94